sensor_id;sensor_type;location;lat;lon;timestamp;pressure;altitude;pressure_sealevel;temperature;humidity
52469;BME280;38381;53.688;10.776;2023-10-09T00:03:07;101811.09;;;10.66;91.54
52469;BME280;38381;53.688;10.776;2023-10-09T00:08:07;101794.69;;;10.67;91.41
52469;BME280;38381;53.688;10.776;2023-10-09T00:13:09;101798.16;;;10.68;91.49
52469;BME280;38381;53.688;10.776;2023-10-09T00:18:10;101788.97;;;10.44;93.37
52469;BME280;38381;53.688;10.776;2023-10-09T00:23:12;101772.47;;;10.41;94.18
52469;BME280;38381;53.688;10.776;2023-10-09T00:28:16;101773.72;;;10.58;94.03
52469;BME280;38381;53.688;10.776;2023-10-09T00:33:19;101741.63;;;10.53;92.84
52469;BME280;38381;53.688;10.776;2023-10-09T00:38:22;101721.88;;;10.60;92.68
52469;BME280;38381;53.688;10.776;2023-10-09T00:43:22;101707.56;;;10.38;93.74
52469;BME280;38381;53.688;10.776;2023-10-09T00:48:30;101699.19;;;10.13;96.00
52469;BME280;38381;53.688;10.776;2023-10-09T00:53:31;101707.50;;;10.35;94.35
52469;BME280;38381;53.688;10.776;2023-10-09T00:58:33;101689.88;;;10.21;94.90
52469;BME280;38381;53.688;10.776;2023-10-09T01:03:36;101689.50;;;10.06;96.17
52469;BME280;38381;53.688;10.776;2023-10-09T01:08:40;101672.19;;;10.03;96.99
52469;BME280;38381;53.688;10.776;2023-10-09T01:13:41;101663.69;;;10.09;96.72
52469;BME280;38381;53.688;10.776;2023-10-09T01:18:55;101665.38;;;10.08;96.41
52469;BME280;38381;53.688;10.776;2023-10-09T01:23:59;101661.88;;;10.06;96.82
52469;BME280;38381;53.688;10.776;2023-10-09T01:29:03;101637.91;;;10.15;96.28
52469;BME280;38381;53.688;10.776;2023-10-09T01:34:04;101636.34;;;10.25;95.11
52469;BME280;38381;53.688;10.776;2023-10-09T01:39:09;101630.41;;;10.27;94.54
52469;BME280;38381;53.688;10.776;2023-10-09T01:44:21;101624.28;;;10.25;94.18
52469;BME280;38381;53.688;10.776;2023-10-09T01:49:22;101615.31;;;10.10;95.05
52469;BME280;38381;53.688;10.776;2023-10-09T01:54:29;101607.34;;;10.02;96.18
52469;BME280;38381;53.688;10.776;2023-10-09T01:59:41;101606.97;;;10.24;94.63
52469;BME280;38381;53.688;10.776;2023-10-09T02:04:44;101612.13;;;10.23;94.28
52469;BME280;38381;53.688;10.776;2023-10-09T02:09:45;101599.06;;;10.18;95.03
52469;BME280;38381;53.688;10.776;2023-10-09T02:14:47;101610.47;;;10.26;94.17
52469;BME280;38381;53.688;10.776;2023-10-09T02:19:48;101631.25;;;10.28;94.16
52469;BME280;38381;53.688;10.776;2023-10-09T02:24:49;101627.09;;;10.35;94.99
52469;BME280;38381;53.688;10.776;2023-10-09T02:29:50;101580.50;;;10.38;94.31
52469;BME280;38381;53.688;10.776;2023-10-09T02:34:53;101556.28;;;10.37;93.72
52469;BME280;38381;53.688;10.776;2023-10-09T02:39:54;101566.59;;;10.34;93.94
52469;BME280;38381;53.688;10.776;2023-10-09T02:44:55;101545.00;;;10.35;93.84
52469;BME280;38381;53.688;10.776;2023-10-09T02:49:56;101556.19;;;10.33;93.71
52469;BME280;38381;53.688;10.776;2023-10-09T02:55:08;101548.44;;;10.34;94.28
52469;BME280;38381;53.688;10.776;2023-10-09T03:00:13;101556.31;;;10.39;94.26
52469;BME280;38381;53.688;10.776;2023-10-09T03:05:19;101532.03;;;10.34;94.25
52469;BME280;38381;53.688;10.776;2023-10-09T03:10:22;101522.44;;;10.31;94.29
52469;BME280;38381;53.688;10.776;2023-10-09T03:15:22;101499.13;;;10.31;93.75
52469;BME280;38381;53.688;10.776;2023-10-09T03:20:23;101510.22;;;10.27;93.52
52469;BME280;38381;53.688;10.776;2023-10-09T03:25:24;101502.44;;;10.25;93.10
52469;BME280;38381;53.688;10.776;2023-10-09T03:30:27;101492.63;;;10.09;93.18
52469;BME280;38381;53.688;10.776;2023-10-09T03:35:27;101477.91;;;10.08;93.95
52469;BME280;38381;53.688;10.776;2023-10-09T03:40:28;101466.59;;;10.04;93.57
52469;BME280;38381;53.688;10.776;2023-10-09T03:45:28;101472.63;;;10.03;93.50
52469;BME280;38381;53.688;10.776;2023-10-09T03:50:32;101470.63;;;9.90;94.20
52469;BME280;38381;53.688;10.776;2023-10-09T03:55:36;101476.03;;;10.01;94.98
52469;BME280;38381;53.688;10.776;2023-10-09T04:00:38;101468.03;;;9.90;95.61
52469;BME280;38381;53.688;10.776;2023-10-09T04:05:45;101464.69;;;9.96;95.49
52469;BME280;38381;53.688;10.776;2023-10-09T04:10:45;101470.88;;;10.01;95.19
52469;BME280;38381;53.688;10.776;2023-10-09T04:15:52;101451.75;;;9.96;95.30
52469;BME280;38381;53.688;10.776;2023-10-09T04:20:54;101451.25;;;9.71;97.06
52469;BME280;38381;53.688;10.776;2023-10-09T04:26:18;101444.16;;;9.62;98.07
52469;BME280;38381;53.688;10.776;2023-10-09T04:31:21;101451.25;;;9.71;98.65
52469;BME280;38381;53.688;10.776;2023-10-09T04:36:32;101444.19;;;9.64;98.42
52469;BME280;38381;53.688;10.776;2023-10-09T04:41:46;101428.44;;;9.55;99.19
52469;BME280;38381;53.688;10.776;2023-10-09T04:46:47;101418.56;;;9.76;98.88
52469;BME280;38381;53.688;10.776;2023-10-09T04:52:06;101411.34;;;9.63;99.38
52469;BME280;38381;53.688;10.776;2023-10-09T04:57:18;101396.81;;;9.68;99.19
52469;BME280;38381;53.688;10.776;2023-10-09T05:02:18;101401.94;;;9.66;98.35
52469;BME280;38381;53.688;10.776;2023-10-09T05:07:23;101393.31;;;9.66;97.43
52469;BME280;38381;53.688;10.776;2023-10-09T05:12:24;101402.56;;;9.55;97.20
52469;BME280;38381;53.688;10.776;2023-10-09T05:17:30;101409.63;;;9.63;96.10
52469;BME280;38381;53.688;10.776;2023-10-09T05:22:34;101402.97;;;9.75;94.95
52469;BME280;38381;53.688;10.776;2023-10-09T05:27:38;101388.66;;;9.50;95.96
52469;BME280;38381;53.688;10.776;2023-10-09T05:32:52;101362.59;;;9.42;95.94
52469;BME280;38381;53.688;10.776;2023-10-09T05:37:55;101344.94;;;9.24;97.89
52469;BME280;38381;53.688;10.776;2023-10-09T05:43:04;101341.53;;;9.25;97.85
52469;BME280;38381;53.688;10.776;2023-10-09T05:48:06;101345.94;;;9.29;97.22
52469;BME280;38381;53.688;10.776;2023-10-09T05:53:18;101342.50;;;9.30;96.17
52469;BME280;38381;53.688;10.776;2023-10-09T05:58:38;101333.78;;;9.25;96.55
52469;BME280;38381;53.688;10.776;2023-10-09T06:03:57;101348.66;;;9.37;96.04
52469;BME280;38381;53.688;10.776;2023-10-09T06:09:16;101343.53;;;9.38;95.33
52469;BME280;38381;53.688;10.776;2023-10-09T06:14:17;101363.34;;;9.36;95.33
52469;BME280;38381;53.688;10.776;2023-10-09T06:19:30;101365.44;;;9.54;94.72
52469;BME280;38381;53.688;10.776;2023-10-09T06:24:32;101366.03;;;9.42;95.38
52469;BME280;38381;53.688;10.776;2023-10-09T06:29:51;101380.88;;;9.50;94.18
52469;BME280;38381;53.688;10.776;2023-10-09T06:34:53;101380.28;;;9.22;95.46
52469;BME280;38381;53.688;10.776;2023-10-09T06:40:15;101377.41;;;9.10;96.54
52469;BME280;38381;53.688;10.776;2023-10-09T06:45:35;101390.81;;;9.30;95.39
52469;BME280;38381;53.688;10.776;2023-10-09T06:50:44;101388.81;;;9.18;95.82
52469;BME280;38381;53.688;10.776;2023-10-09T06:55:56;101381.44;;;9.36;95.63
52469;BME280;38381;53.688;10.776;2023-10-09T07:01:05;101375.63;;;9.46;95.97
52469;BME280;38381;53.688;10.776;2023-10-09T07:06:26;101379.16;;;9.50;95.71
52469;BME280;38381;53.688;10.776;2023-10-09T07:11:39;101370.16;;;9.33;95.97
52469;BME280;38381;53.688;10.776;2023-10-09T07:16:39;101363.94;;;9.23;96.68
52469;BME280;38381;53.688;10.776;2023-10-09T07:21:57;101355.31;;;9.24;97.15
52469;BME280;38381;53.688;10.776;2023-10-09T07:27:04;101350.84;;;9.18;98.12
52469;BME280;38381;53.688;10.776;2023-10-09T07:32:09;101343.28;;;9.26;98.72
52469;BME280;38381;53.688;10.776;2023-10-09T07:37:12;101360.38;;;9.19;98.51
52469;BME280;38381;53.688;10.776;2023-10-09T07:42:19;101363.19;;;9.30;97.80
52469;BME280;38381;53.688;10.776;2023-10-09T07:47:26;101368.38;;;9.30;98.18
52469;BME280;38381;53.688;10.776;2023-10-09T07:52:45;101368.13;;;9.18;98.36
52469;BME280;38381;53.688;10.776;2023-10-09T07:57:46;101371.03;;;9.33;98.00
52469;BME280;38381;53.688;10.776;2023-10-09T08:02:52;101363.72;;;9.14;99.55
52469;BME280;38381;53.688;10.776;2023-10-09T08:08:01;101360.28;;;9.15;99.50
52469;BME280;38381;53.688;10.776;2023-10-09T08:13:19;101368.03;;;9.13;100.00
52469;BME280;38381;53.688;10.776;2023-10-09T08:18:39;101366.00;;;9.39;99.54
52469;BME280;38381;53.688;10.776;2023-10-09T08:23:45;101369.25;;;9.31;99.78
52469;BME280;38381;53.688;10.776;2023-10-09T08:28:48;101365.09;;;9.39;99.03
52469;BME280;38381;53.688;10.776;2023-10-09T08:33:49;101372.22;;;9.49;99.91
52469;BME280;38381;53.688;10.776;2023-10-09T08:38:59;101375.91;;;9.60;99.93
52469;BME280;38381;53.688;10.776;2023-10-09T08:44:02;101370.81;;;9.65;99.53
52469;BME280;38381;53.688;10.776;2023-10-09T08:49:04;101374.16;;;9.59;100.00
52469;BME280;38381;53.688;10.776;2023-10-09T08:54:08;101368.19;;;9.62;99.58
52469;BME280;38381;53.688;10.776;2023-10-09T08:59:11;101375.00;;;9.58;100.00
52469;BME280;38381;53.688;10.776;2023-10-09T09:04:35;101364.50;;;9.51;100.00
52469;BME280;38381;53.688;10.776;2023-10-09T09:09:54;101359.72;;;9.71;100.00
52469;BME280;38381;53.688;10.776;2023-10-09T09:14:57;101354.25;;;9.57;100.00
52469;BME280;38381;53.688;10.776;2023-10-09T09:19:57;101361.25;;;9.61;100.00
52469;BME280;38381;53.688;10.776;2023-10-09T09:24:59;101353.34;;;9.55;100.00
52469;BME280;38381;53.688;10.776;2023-10-09T09:30:22;101360.78;;;9.82;100.00
52469;BME280;38381;53.688;10.776;2023-10-09T09:35:24;101366.63;;;9.70;100.00
52469;BME280;38381;53.688;10.776;2023-10-09T09:40:28;101355.28;;;9.65;100.00
52469;BME280;38381;53.688;10.776;2023-10-09T09:45:35;101350.28;;;9.74;100.00
52469;BME280;38381;53.688;10.776;2023-10-09T09:50:36;101345.28;;;9.83;100.00
52469;BME280;38381;53.688;10.776;2023-10-09T09:55:54;101338.00;;;9.64;100.00
52469;BME280;38381;53.688;10.776;2023-10-09T10:01:05;101317.56;;;9.79;100.00
52469;BME280;38381;53.688;10.776;2023-10-09T10:06:20;101331.38;;;9.78;100.00
52469;BME280;38381;53.688;10.776;2023-10-09T10:11:41;101322.72;;;9.78;100.00
52469;BME280;38381;53.688;10.776;2023-10-09T10:17:02;101331.59;;;9.91;100.00
52469;BME280;38381;53.688;10.776;2023-10-09T10:22:23;101333.16;;;9.81;100.00
52469;BME280;38381;53.688;10.776;2023-10-09T10:27:27;101332.66;;;10.02;100.00
52469;BME280;38381;53.688;10.776;2023-10-09T10:37:51;101331.16;;;10.15;100.00
52469;BME280;38381;53.688;10.776;2023-10-09T10:43:00;101322.41;;;10.08;100.00
52469;BME280;38381;53.688;10.776;2023-10-09T10:48:14;101333.06;;;10.23;100.00
52469;BME280;38381;53.688;10.776;2023-10-09T10:53:23;101319.28;;;10.29;100.00
52469;BME280;38381;53.688;10.776;2023-10-09T10:58:27;101313.38;;;10.35;100.00
52469;BME280;38381;53.688;10.776;2023-10-09T11:03:47;101322.03;;;10.35;100.00
52469;BME280;38381;53.688;10.776;2023-10-09T11:08:53;101312.47;;;10.33;100.00
52469;BME280;38381;53.688;10.776;2023-10-09T11:13:54;101300.66;;;10.50;100.00
52469;BME280;38381;53.688;10.776;2023-10-09T11:18:58;101293.59;;;10.41;100.00
52469;BME280;38381;53.688;10.776;2023-10-09T11:24:12;101293.81;;;10.55;100.00
52469;BME280;38381;53.688;10.776;2023-10-09T11:29:24;101301.44;;;10.44;100.00
52469;BME280;38381;53.688;10.776;2023-10-09T11:34:32;101299.25;;;10.71;100.00
52469;BME280;38381;53.688;10.776;2023-10-09T11:39:34;101309.50;;;10.63;100.00
52469;BME280;38381;53.688;10.776;2023-10-09T11:44:44;101312.75;;;10.50;100.00
52469;BME280;38381;53.688;10.776;2023-10-09T11:49:53;101318.03;;;10.54;100.00
52469;BME280;38381;53.688;10.776;2023-10-09T11:55:02;101311.34;;;10.72;100.00
52469;BME280;38381;53.688;10.776;2023-10-09T12:00:04;101310.34;;;10.62;100.00
52469;BME280;38381;53.688;10.776;2023-10-09T12:05:31;101306.88;;;10.61;100.00
52469;BME280;38381;53.688;10.776;2023-10-09T12:10:32;101289.50;;;10.54;100.00
52469;BME280;38381;53.688;10.776;2023-10-09T12:15:34;101281.06;;;10.69;100.00
52469;BME280;38381;53.688;10.776;2023-10-09T12:20:37;101288.13;;;10.79;100.00
52469;BME280;38381;53.688;10.776;2023-10-09T12:25:38;101295.75;;;10.69;100.00
52469;BME280;38381;53.688;10.776;2023-10-09T12:30:38;101287.34;;;10.86;100.00
52469;BME280;38381;53.688;10.776;2023-10-09T12:35:41;101283.06;;;10.90;100.00
52469;BME280;38381;53.688;10.776;2023-10-09T12:40:45;101290.75;;;10.82;100.00
52469;BME280;38381;53.688;10.776;2023-10-09T12:45:52;101290.81;;;10.87;100.00
52469;BME280;38381;53.688;10.776;2023-10-09T12:50:57;101280.38;;;10.81;100.00
52469;BME280;38381;53.688;10.776;2023-10-09T12:55:57;101279.84;;;11.08;100.00
52469;BME280;38381;53.688;10.776;2023-10-09T13:00:58;101287.69;;;11.13;100.00
52469;BME280;38381;53.688;10.776;2023-10-09T13:06:09;101291.16;;;11.12;100.00
52469;BME280;38381;53.688;10.776;2023-10-09T13:11:12;101278.03;;;11.02;100.00
52469;BME280;38381;53.688;10.776;2023-10-09T13:16:18;101264.22;;;11.05;100.00
52469;BME280;38381;53.688;10.776;2023-10-09T13:21:26;101276.28;;;11.00;100.00
52469;BME280;38381;53.688;10.776;2023-10-09T13:26:27;101277.22;;;11.06;100.00
52469;BME280;38381;53.688;10.776;2023-10-09T13:31:30;101282.59;;;11.20;100.00
52469;BME280;38381;53.688;10.776;2023-10-09T13:36:34;101270.38;;;11.12;100.00
52469;BME280;38381;53.688;10.776;2023-10-09T13:41:34;101262.75;;;11.25;100.00
52469;BME280;38381;53.688;10.776;2023-10-09T13:46:35;101266.16;;;11.20;100.00
52469;BME280;38381;53.688;10.776;2023-10-09T13:51:41;101259.19;;;11.16;100.00
52469;BME280;38381;53.688;10.776;2023-10-09T13:56:44;101261.09;;;11.31;100.00
52469;BME280;38381;53.688;10.776;2023-10-09T14:01:45;101260.16;;;11.24;100.00
52469;BME280;38381;53.688;10.776;2023-10-09T14:06:48;101267.84;;;11.16;100.00
52469;BME280;38381;53.688;10.776;2023-10-09T14:11:49;101261.94;;;11.31;100.00
52469;BME280;38381;53.688;10.776;2023-10-09T14:16:52;101245.38;;;11.18;100.00
52469;BME280;38381;53.688;10.776;2023-10-09T14:21:57;101237.59;;;11.20;100.00
52469;BME280;38381;53.688;10.776;2023-10-09T14:26:58;101246.53;;;11.45;100.00
52469;BME280;38381;53.688;10.776;2023-10-09T14:31:58;101255.69;;;11.14;100.00
52469;BME280;38381;53.688;10.776;2023-10-09T14:37:01;101259.56;;;11.50;100.00
52469;BME280;38381;53.688;10.776;2023-10-09T14:42:03;101267.41;;;11.56;100.00
52469;BME280;38381;53.688;10.776;2023-10-09T14:47:09;101270.03;;;11.60;100.00
52469;BME280;38381;53.688;10.776;2023-10-09T14:52:10;101277.09;;;11.71;100.00
52469;BME280;38381;53.688;10.776;2023-10-09T14:57:11;101278.56;;;11.45;100.00
52469;BME280;38381;53.688;10.776;2023-10-09T15:02:12;101274.38;;;11.60;100.00
52469;BME280;38381;53.688;10.776;2023-10-09T15:07:12;101277.78;;;11.53;100.00
52469;BME280;38381;53.688;10.776;2023-10-09T15:12:15;101274.38;;;11.60;100.00
52469;BME280;38381;53.688;10.776;2023-10-09T15:17:15;101283.72;;;11.42;100.00
52469;BME280;38381;53.688;10.776;2023-10-09T15:22:16;101275.06;;;11.43;100.00
52469;BME280;38381;53.688;10.776;2023-10-09T15:27:16;101277.72;;;11.50;100.00
52469;BME280;38381;53.688;10.776;2023-10-09T15:32:17;101268.16;;;11.45;100.00
52469;BME280;38381;53.688;10.776;2023-10-09T15:37:22;101279.44;;;11.47;100.00
52469;BME280;38381;53.688;10.776;2023-10-09T15:42:23;101282.94;;;11.50;100.00
52469;BME280;38381;53.688;10.776;2023-10-09T15:47:23;101296.97;;;11.65;100.00
52469;BME280;38381;53.688;10.776;2023-10-09T15:52:24;101288.28;;;11.66;100.00
52469;BME280;38381;53.688;10.776;2023-10-09T15:57:26;101293.38;;;11.56;100.00
52469;BME280;38381;53.688;10.776;2023-10-09T16:02:27;101287.16;;;11.41;100.00
52469;BME280;38381;53.688;10.776;2023-10-09T16:07:27;101295.00;;;11.44;100.00
52469;BME280;38381;53.688;10.776;2023-10-09T16:12:28;101292.69;;;11.69;100.00
52469;BME280;38381;53.688;10.776;2023-10-09T16:17:31;101300.34;;;11.60;100.00
52469;BME280;38381;53.688;10.776;2023-10-09T16:22:32;101302.88;;;11.54;100.00
52469;BME280;38381;53.688;10.776;2023-10-09T16:27:32;101322.06;;;11.63;100.00
52469;BME280;38381;53.688;10.776;2023-10-09T16:32:32;101311.59;;;11.57;100.00
52469;BME280;38381;53.688;10.776;2023-10-09T16:37:33;101328.97;;;11.61;100.00
52469;BME280;38381;53.688;10.776;2023-10-09T16:42:34;101327.97;;;11.48;100.00
52469;BME280;38381;53.688;10.776;2023-10-09T16:47:36;101335.81;;;11.56;100.00
52469;BME280;38381;53.688;10.776;2023-10-09T16:52:38;101329.94;;;11.71;100.00
52469;BME280;38381;53.688;10.776;2023-10-09T16:57:40;101337.66;;;11.65;100.00
52469;BME280;38381;53.688;10.776;2023-10-09T17:02:40;101339.41;;;11.67;100.00
52469;BME280;38381;53.688;10.776;2023-10-09T17:07:41;101341.09;;;11.62;100.00
52469;BME280;38381;53.688;10.776;2023-10-09T17:12:45;101340.34;;;11.71;100.00
52469;BME280;38381;53.688;10.776;2023-10-09T17:17:52;101338.72;;;11.82;100.00
52469;BME280;38381;53.688;10.776;2023-10-09T17:22:53;101338.56;;;11.68;100.00
52469;BME280;38381;53.688;10.776;2023-10-09T17:27:53;101347.16;;;11.61;100.00
52469;BME280;38381;53.688;10.776;2023-10-09T17:32:58;101342.91;;;11.70;100.00
52469;BME280;38381;53.688;10.776;2023-10-09T17:37:58;101347.31;;;11.75;100.00
52469;BME280;38381;53.688;10.776;2023-10-09T17:42:59;101365.38;;;11.66;100.00
52469;BME280;38381;53.688;10.776;2023-10-09T17:47:59;101356.88;;;11.81;100.00
52469;BME280;38381;53.688;10.776;2023-10-09T17:53:05;101366.56;;;11.90;100.00
52469;BME280;38381;53.688;10.776;2023-10-09T17:58:07;101364.88;;;11.95;100.00
52469;BME280;38381;53.688;10.776;2023-10-09T18:03:12;101363.75;;;11.76;100.00
52469;BME280;38381;53.688;10.776;2023-10-09T18:08:15;101367.47;;;11.95;100.00
52469;BME280;38381;53.688;10.776;2023-10-09T18:13:15;101374.34;;;11.90;100.00
52469;BME280;38381;53.688;10.776;2023-10-09T18:18:19;101376.94;;;11.90;100.00
52469;BME280;38381;53.688;10.776;2023-10-09T18:23:20;101380.34;;;11.87;100.00
52469;BME280;38381;53.688;10.776;2023-10-09T18:28:20;101376.84;;;11.83;100.00
52469;BME280;38381;53.688;10.776;2023-10-09T18:33:21;101381.09;;;11.75;100.00
52469;BME280;38381;53.688;10.776;2023-10-09T18:38:23;101388.88;;;11.75;100.00
52469;BME280;38381;53.688;10.776;2023-10-09T18:43:23;101385.41;;;11.75;100.00
52469;BME280;38381;53.688;10.776;2023-10-09T18:48:24;101390.78;;;11.88;100.00
52469;BME280;38381;53.688;10.776;2023-10-09T18:53:28;101392.53;;;11.91;100.00
52469;BME280;38381;53.688;10.776;2023-10-09T18:58:32;101395.84;;;11.81;100.00
52469;BME280;38381;53.688;10.776;2023-10-09T19:03:32;101391.56;;;11.81;100.00
52469;BME280;38381;53.688;10.776;2023-10-09T19:08:36;101391.53;;;11.80;100.00
52469;BME280;38381;53.688;10.776;2023-10-09T19:13:37;101381.09;;;11.77;100.00
52469;BME280;38381;53.688;10.776;2023-10-09T19:18:38;101381.88;;;11.70;100.00
52469;BME280;38381;53.688;10.776;2023-10-09T19:23:41;101386.28;;;11.77;100.00
52469;BME280;38381;53.688;10.776;2023-10-09T19:28:44;101388.97;;;11.81;100.00
52469;BME280;38381;53.688;10.776;2023-10-09T19:33:47;101388.09;;;11.82;100.00
52469;BME280;38381;53.688;10.776;2023-10-09T19:38:49;101381.97;;;11.77;100.00
52469;BME280;38381;53.688;10.776;2023-10-09T19:43:52;101395.94;;;11.85;100.00
52469;BME280;38381;53.688;10.776;2023-10-09T19:48:53;101401.09;;;11.82;100.00
52469;BME280;38381;53.688;10.776;2023-10-09T19:53:55;101397.75;;;11.91;100.00
52469;BME280;38381;53.688;10.776;2023-10-09T19:58:55;101397.56;;;11.77;100.00
52469;BME280;38381;53.688;10.776;2023-10-09T20:03:57;101395.97;;;11.88;100.00
52469;BME280;38381;53.688;10.776;2023-10-09T20:08:58;101388.25;;;11.95;100.00
52469;BME280;38381;53.688;10.776;2023-10-09T20:13:59;101395.19;;;11.94;100.00
52469;BME280;38381;53.688;10.776;2023-10-09T20:19:00;101403.84;;;11.95;100.00
52469;BME280;38381;53.688;10.776;2023-10-09T20:24:02;101415.13;;;11.97;100.00
52469;BME280;38381;53.688;10.776;2023-10-09T20:29:02;101412.59;;;12.01;100.00
52469;BME280;38381;53.688;10.776;2023-10-09T20:34:03;101410.81;;;11.97;100.00
52469;BME280;38381;53.688;10.776;2023-10-09T20:39:10;101410.84;;;12.00;100.00
52469;BME280;38381;53.688;10.776;2023-10-09T20:44:11;101415.03;;;11.87;100.00
52469;BME280;38381;53.688;10.776;2023-10-09T20:49:11;101422.16;;;12.04;100.00
52469;BME280;38381;53.688;10.776;2023-10-09T20:54:14;101430.06;;;12.15;100.00
52469;BME280;38381;53.688;10.776;2023-10-09T20:59:15;101429.16;;;12.11;100.00
52469;BME280;38381;53.688;10.776;2023-10-09T21:04:16;101434.38;;;12.11;100.00
52469;BME280;38381;53.688;10.776;2023-10-09T21:09:16;101440.50;;;12.18;100.00
52469;BME280;38381;53.688;10.776;2023-10-09T21:14:17;101432.75;;;12.22;100.00
52469;BME280;38381;53.688;10.776;2023-10-09T21:19:17;101438.03;;;12.28;100.00
52469;BME280;38381;53.688;10.776;2023-10-09T21:24:17;101439.81;;;12.33;100.00
52469;BME280;38381;53.688;10.776;2023-10-09T21:29:18;101444.19;;;12.37;100.00
52469;BME280;38381;53.688;10.776;2023-10-09T21:34:18;101445.06;;;12.39;100.00
52469;BME280;38381;53.688;10.776;2023-10-09T21:39:19;101450.34;;;12.45;100.00
52469;BME280;38381;53.688;10.776;2023-10-09T21:44:20;101439.03;;;12.44;100.00
52469;BME280;38381;53.688;10.776;2023-10-09T21:49:20;101446.84;;;12.46;100.00
52469;BME280;38381;53.688;10.776;2023-10-09T21:54:20;101453.81;;;12.47;100.00
52469;BME280;38381;53.688;10.776;2023-10-09T21:59:21;101449.47;;;12.47;100.00
52469;BME280;38381;53.688;10.776;2023-10-09T22:04:21;101451.22;;;12.48;100.00
52469;BME280;38381;53.688;10.776;2023-10-09T22:09:22;101446.00;;;12.47;100.00
52469;BME280;38381;53.688;10.776;2023-10-09T22:14:22;101448.59;;;12.48;100.00
52469;BME280;38381;53.688;10.776;2023-10-09T22:19:23;101426.03;;;12.46;100.00
52469;BME280;38381;53.688;10.776;2023-10-09T22:24:25;101439.09;;;12.49;100.00
52469;BME280;38381;53.688;10.776;2023-10-09T22:29:26;101443.47;;;12.53;100.00
52469;BME280;38381;53.688;10.776;2023-10-09T22:34:27;101437.41;;;12.56;100.00
52469;BME280;38381;53.688;10.776;2023-10-09T22:39:30;101427.84;;;12.55;100.00
52469;BME280;38381;53.688;10.776;2023-10-09T22:44:34;101423.56;;;12.60;100.00
52469;BME280;38381;53.688;10.776;2023-10-09T22:49:36;101422.72;;;12.59;100.00
52469;BME280;38381;53.688;10.776;2023-10-09T22:54:41;101427.06;;;12.62;100.00
52469;BME280;38381;53.688;10.776;2023-10-09T22:59:42;101417.50;;;12.58;100.00
52469;BME280;38381;53.688;10.776;2023-10-09T23:04:51;101423.56;;;12.58;100.00
52469;BME280;38381;53.688;10.776;2023-10-09T23:10:06;101427.09;;;12.66;100.00
52469;BME280;38381;53.688;10.776;2023-10-09T23:15:15;101438.44;;;12.72;100.00
52469;BME280;38381;53.688;10.776;2023-10-09T23:20:32;101444.50;;;12.75;100.00
52469;BME280;38381;53.688;10.776;2023-10-09T23:25:47;101430.63;;;12.73;100.00
52469;BME280;38381;53.688;10.776;2023-10-09T23:30:50;101441.03;;;12.73;100.00
52469;BME280;38381;53.688;10.776;2023-10-09T23:35:53;101441.03;;;12.72;100.00
52469;BME280;38381;53.688;10.776;2023-10-09T23:41:04;101429.72;;;12.71;100.00
52469;BME280;38381;53.688;10.776;2023-10-09T23:46:10;101445.38;;;12.74;100.00
52469;BME280;38381;53.688;10.776;2023-10-09T23:51:11;101446.19;;;12.68;100.00
52469;BME280;38381;53.688;10.776;2023-10-09T23:56:18;101439.28;;;12.72;100.00
